Time;durP1;ratioP1;P1;durP2;ratioP2;P2;SDS_P1;SDS_P2;PMS_P1;PMS_P2;Temp;Humidity;BMP_temperature;BMP_pressure;BME280_temperature;BME280_humidity;BME280_pressure;Samples;Min_cycle;Max_cycle;Signal;HPM_P1;HPM_P2
2023/07/15 00:02:20;;;;;;;4.85;3.00;;;;;;;22.61;47.58;100310.09;5093524;28;20028;-57
2023/07/15 00:04:46;;;;;;;5.05;3.00;;;;;;;22.58;47.74;100305.75;5093638;28;20103;-57
2023/07/15 00:07:11;;;;;;;6.22;3.15;;;;;;;22.60;47.73;100313.75;5093555;28;20389;-57
2023/07/15 00:09:37;;;;;;;6.75;3.20;;;;;;;22.60;47.36;100311.91;5093273;28;20032;-57
2023/07/15 00:12:03;;;;;;;8.68;3.15;;;;;;;22.61;46.90;100311.00;5093482;28;20027;-58
2023/07/15 00:14:29;;;;;;;9.35;3.65;;;;;;;22.64;47.39;100307.28;5093532;28;20032;-57
2023/07/15 00:16:55;;;;;;;5.97;3.40;;;;;;;22.59;47.40;100307.50;5093317;28;20028;-58
2023/07/15 00:19:22;;;;;;;6.30;3.40;;;;;;;22.59;47.21;100301.22;5093604;28;20120;-57
2023/07/15 00:21:48;;;;;;;8.80;3.20;;;;;;;22.57;47.33;100305.81;5093045;28;20097;-58
2023/07/15 00:24:14;;;;;;;7.82;3.45;;;;;;;22.54;47.17;100301.44;5093138;28;20028;-57
2023/07/15 00:26:40;;;;;;;6.28;3.10;;;;;;;22.56;47.30;100301.38;5093189;28;20083;-57
2023/07/15 00:29:07;;;;;;;6.50;2.97;;;;;;;22.53;46.99;100302.41;5093245;28;20086;-57
2023/07/15 00:31:34;;;;;;;5.00;3.20;;;;;;;22.50;47.10;100302.53;5093068;28;20024;-58
2023/07/15 00:34:00;;;;;;;7.70;3.10;;;;;;;22.47;47.66;100308.06;5093515;28;20039;-57
2023/07/15 00:36:29;;;;;;;6.75;3.38;;;;;;;22.44;47.47;100302.81;5075310;28;20385;-57
2023/07/15 00:38:54;;;;;;;5.65;2.90;;;;;;;22.45;47.67;100309.97;5093340;28;20028;-58
2023/07/15 00:41:27;;;;;;;4.95;3.30;;;;;;;22.40;47.70;100306.63;5093132;28;20389;-57
2023/07/15 00:43:54;;;;;;;9.05;3.15;;;;;;;22.38;47.33;100295.91;5093005;28;20363;-58
2023/07/15 00:46:19;;;;;;;9.07;3.17;;;;;;;22.38;47.70;100308.50;5093308;28;20043;-58
2023/07/15 00:49:15;;;;;;;4.90;3.10;;;;;;;22.38;47.35;100312.06;5093244;28;20028;-57
2023/07/15 00:51:47;;;;;;;4.93;3.00;;;;;;;22.41;47.27;100306.53;5074827;28;20020;-58
2023/07/15 00:54:14;;;;;;;7.13;3.10;;;;;;;22.38;47.18;100309.38;5093065;28;20535;-57
2023/07/15 00:56:40;;;;;;;6.75;3.30;;;;;;;22.36;47.69;100313.09;5092881;28;20032;-57
2023/07/15 00:59:08;;;;;;;10.40;2.90;;;;;;;22.38;47.29;100316.56;5092835;28;20079;-56
2023/07/15 01:01:34;;;;;;;4.70;2.90;;;;;;;22.33;47.33;100313.22;5092758;28;20032;-60
2023/07/15 01:04:00;;;;;;;4.63;2.78;;;;;;;22.31;47.36;100321.38;5092908;28;20111;-57
2023/07/15 01:06:26;;;;;;;5.20;2.90;;;;;;;22.31;47.15;100309.72;5074758;28;20130;-56
2023/07/15 01:08:52;;;;;;;6.20;2.92;;;;;;;22.31;47.47;100312.41;5092778;28;20071;-56
2023/07/15 01:11:17;;;;;;;8.48;2.97;;;;;;;22.28;47.34;100316.13;5093014;28;20020;-57
2023/07/15 01:13:42;;;;;;;9.30;2.80;;;;;;;22.25;47.83;100319.84;5096207;28;20430;-58
2023/07/15 01:16:08;;;;;;;4.95;2.85;;;;;;;22.25;47.89;100327.91;5096909;28;20024;-58
2023/07/15 01:18:33;;;;;;;5.72;2.95;;;;;;;22.24;47.61;100323.47;5096930;28;20028;-58
2023/07/15 01:20:59;;;;;;;6.45;2.78;;;;;;;22.18;47.77;100323.78;5096468;28;20137;-56
2023/07/15 01:23:29;;;;;;;6.47;3.10;;;;;;;22.15;48.24;100321.22;5097028;28;20036;-57
2023/07/15 01:25:56;;;;;;;7.93;2.95;;;;;;;22.10;48.17;100320.50;5096584;28;20047;-56
2023/07/15 01:28:21;;;;;;;7.22;2.90;;;;;;;22.09;48.30;100328.63;5096608;28;20028;-57
2023/07/15 01:30:47;;;;;;;6.35;2.90;;;;;;;22.07;48.26;100325.16;5096702;28;20028;-56
2023/07/15 01:33:15;;;;;;;5.18;2.90;;;;;;;21.94;48.43;100323.00;5096419;28;20043;-57
2023/07/15 01:35:46;;;;;;;4.30;2.70;;;;;;;21.94;48.81;100323.00;5096791;28;20062;-56
2023/07/15 01:38:11;;;;;;;7.05;2.92;;;;;;;21.89;48.55;100325.03;5096597;28;20077;-57
2023/07/15 01:40:38;;;;;;;5.70;2.75;;;;;;;21.83;49.17;100319.03;5096517;28;20065;-58
2023/07/15 01:43:04;;;;;;;7.50;2.90;;;;;;;21.81;49.70;100323.63;5078168;28;20488;-57
2023/07/15 01:45:30;;;;;;;5.22;3.00;;;;;;;21.76;49.84;100329.22;5096461;28;20089;-57
2023/07/15 01:47:55;;;;;;;5.13;2.60;;;;;;;21.72;49.44;100325.78;5096184;28;20509;-57
2023/07/15 01:50:21;;;;;;;7.00;3.00;;;;;;;21.74;49.37;100328.38;5096229;28;20031;-56
2023/07/15 01:52:46;;;;;;;4.63;2.80;;;;;;;21.72;49.82;100333.84;5096201;28;20024;-57
2023/07/15 01:55:11;;;;;;;11.32;2.80;;;;;;;21.71;49.74;100329.41;5077899;28;20028;-57
2023/07/15 01:57:37;;;;;;;8.95;2.88;;;;;;;21.73;49.38;100329.34;5096139;28;20063;-56
2023/07/15 02:00:05;;;;;;;5.40;2.60;;;;;;;21.69;49.84;100331.28;5096015;28;20496;-56
2023/07/15 02:02:30;;;;;;;8.02;2.80;;;;;;;21.67;50.47;100330.47;5096222;28;20051;-57
2023/07/15 02:04:56;;;;;;;5.57;2.88;;;;;;;21.67;50.54;100332.28;5095877;28;20477;-58
2023/07/15 02:07:22;;;;;;;6.25;2.83;;;;;;;21.62;49.94;100340.53;5095870;28;20101;-58
2023/07/15 02:09:48;;;;;;;9.27;3.13;;;;;;;21.59;50.16;100337.13;5095824;28;20024;-56
2023/07/15 02:12:14;;;;;;;5.80;3.03;;;;;;;21.55;49.89;100341.75;5095865;28;20478;-58
2023/07/15 02:14:39;;;;;;;5.72;2.88;;;;;;;21.52;49.98;100333.81;5095924;28;20043;-57
2023/07/15 02:17:06;;;;;;;5.97;2.97;;;;;;;21.48;50.37;100327.69;5077499;28;20024;-57
2023/07/15 02:19:31;;;;;;;9.38;3.08;;;;;;;21.46;50.07;100339.47;5095575;28;20054;-57
2023/07/15 02:21:59;;;;;;;6.10;2.88;;;;;;;21.39;50.47;100346.03;5095570;28;20040;-57
2023/07/15 02:24:24;;;;;;;7.15;2.75;;;;;;;21.34;50.62;100338.16;5095263;28;20032;-57
2023/07/15 02:26:50;;;;;;;5.40;2.90;;;;;;;21.33;50.79;100347.19;5077399;28;20539;-56
2023/07/15 02:29:15;;;;;;;5.70;3.13;;;;;;;21.26;51.25;100343.81;5095369;28;20028;-58
2023/07/15 02:31:43;;;;;;;5.82;2.72;;;;;;;21.22;51.43;100352.94;5095297;28;20066;-57
2023/07/15 02:34:09;;;;;;;5.60;3.00;;;;;;;21.23;51.48;100346.63;5095709;28;20035;-57
2023/07/15 02:36:35;;;;;;;11.73;3.17;;;;;;;21.17;52.18;100348.69;5095300;28;20024;-57
2023/07/15 02:39:01;;;;;;;5.55;2.90;;;;;;;21.17;52.95;100349.56;5095452;28;20104;-56
2023/07/15 02:41:26;;;;;;;5.13;2.53;;;;;;;21.21;52.32;100342.28;5095265;28;20031;-57
2023/07/15 02:43:51;;;;;;;10.15;3.08;;;;;;;21.17;52.07;100349.56;5095438;28;20024;-57
2023/07/15 02:46:17;;;;;;;10.20;2.83;;;;;;;21.12;52.71;100342.66;5095215;28;20024;-57
2023/07/15 02:48:43;;;;;;;5.82;2.92;;;;;;;21.02;52.56;100340.31;5095201;28;20053;-57
2023/07/15 02:51:08;;;;;;;4.80;2.80;;;;;;;21.02;52.56;100343.00;5095105;28;20111;-57
2023/07/15 02:53:33;;;;;;;7.45;2.78;;;;;;;20.95;52.95;100343.34;5077072;28;20099;-58
2023/07/15 02:55:59;;;;;;;9.15;3.35;;;;;;;20.97;53.45;100346.81;5094952;28;20501;-57
2023/07/15 02:58:24;;;;;;;9.13;2.85;;;;;;;20.88;54.60;100334.63;5094999;28;20028;-57
2023/07/15 03:00:53;;;;;;;10.55;3.00;;;;;;;20.88;54.53;100339.13;5094879;28;20555;-58
2023/07/15 03:03:20;;;;;;;5.63;3.08;;;;;;;20.80;54.57;100341.25;5094945;28;20039;-57
2023/07/15 03:05:49;;;;;;;5.68;2.97;;;;;;;20.72;54.46;100337.03;5076877;28;20392;-58
2023/07/15 03:08:15;;;;;;;6.75;3.10;;;;;;;20.72;54.92;100339.72;5094836;28;20392;-57
2023/07/15 03:10:43;;;;;;;6.07;3.20;;;;;;;20.68;55.02;100350.66;5094955;28;20107;-58
2023/07/15 03:13:08;;;;;;;10.02;3.20;;;;;;;20.62;55.00;100337.47;5094709;28;20111;-57
2023/07/15 03:15:35;;;;;;;6.30;3.20;;;;;;;20.62;55.41;100340.16;5094941;28;20132;-57
2023/07/15 03:18:02;;;;;;;8.52;3.20;;;;;;;20.52;55.36;100334.28;5094646;28;20024;-57
2023/07/15 03:20:27;;;;;;;7.15;3.00;;;;;;;20.44;56.55;100334.53;5094553;28;20028;-57
2023/07/15 03:22:54;;;;;;;4.68;2.88;;;;;;;20.43;56.57;100337.28;5094113;28;20040;-58
2023/07/15 03:25:20;;;;;;;7.05;3.20;;;;;;;20.35;56.99;100334.88;5094547;28;20036;-58
2023/07/15 03:27:47;;;;;;;6.70;3.20;;;;;;;20.32;56.59;100345.72;5094453;28;20644;-58
2023/07/15 03:30:13;;;;;;;6.47;2.90;;;;;;;20.30;57.11;100334.19;5094583;28;20081;-58
2023/07/15 03:32:40;;;;;;;5.60;2.95;;;;;;;20.31;56.64;100345.78;5094354;28;20488;-58
2023/07/15 03:35:08;;;;;;;8.65;3.30;;;;;;;20.25;57.85;100345.06;5093601;28;20389;-58
2023/07/15 03:37:35;;;;;;;11.43;3.30;;;;;;;20.21;58.16;100343.47;5093854;28;20039;-58
2023/07/15 03:40:07;;;;;;;7.78;3.08;;;;;;;20.16;58.55;100344.53;5093615;28;20035;-58
2023/07/15 03:42:32;;;;;;;8.43;3.10;;;;;;;20.10;58.83;100347.44;5093440;28;20065;-58
2023/07/15 03:44:58;;;;;;;7.07;3.30;;;;;;;20.01;59.44;100349.53;5093342;28;20106;-58
2023/07/15 03:47:23;;;;;;;10.13;3.08;;;;;;;19.99;59.55;100340.66;5093373;28;20039;-58
2023/07/15 03:49:49;;;;;;;6.30;3.00;;;;;;;19.90;58.82;100349.03;5093482;28;20046;-59
2023/07/15 03:52:14;;;;;;;7.18;3.30;;;;;;;19.85;59.69;100350.13;5093165;28;20025;-58
2023/07/15 03:54:42;;;;;;;8.52;3.03;;;;;;;19.84;59.92;100340.34;5093097;28;20035;-59
2023/07/15 03:57:08;;;;;;;5.63;2.90;;;;;;;19.89;59.86;100341.94;5093352;28;20103;-58
2023/07/15 03:59:33;;;;;;;6.03;3.10;;;;;;;19.89;59.60;100338.38;5093323;28;20202;-57
2023/07/15 04:01:58;;;;;;;6.55;3.30;;;;;;;19.86;59.58;100338.47;5092918;28;20191;-58
2023/07/15 04:04:24;;;;;;;4.85;3.13;;;;;;;19.89;59.88;100341.94;5092880;28;20021;-57
2023/07/15 04:06:49;;;;;;;7.82;3.22;;;;;;;19.87;60.25;100337.53;5074936;28;20503;-58
2023/07/15 04:09:16;;;;;;;6.07;3.10;;;;;;;19.87;59.42;100337.53;5092893;28;20032;-58
2023/07/15 04:11:42;;;;;;;8.38;3.10;;;;;;;19.85;59.98;100345.66;5092895;28;20074;-58
2023/07/15 04:14:08;;;;;;;9.15;3.20;;;;;;;19.87;59.48;100333.06;5092951;28;20111;-58
2023/07/15 04:16:33;;;;;;;4.82;3.05;;;;;;;19.89;59.44;100333.00;5092796;28;20561;-58
2023/07/15 04:18:58;;;;;;;6.68;3.10;;;;;;;19.86;59.57;100335.78;5092687;28;20024;-57
2023/07/15 04:21:24;;;;;;;7.22;3.05;;;;;;;19.90;59.70;100337.44;5092577;28;20030;-57
2023/07/15 04:23:50;;;;;;;5.93;2.85;;;;;;;20.00;59.16;100338.88;5092529;28;20465;-58
2023/07/15 04:26:22;;;;;;;4.57;2.88;;;;;;;20.07;58.75;100344.88;5092481;28;20299;-57
2023/07/15 04:28:52;;;;;;;8.00;3.03;;;;;;;20.14;58.48;100346.41;5092792;28;20055;-58
2023/07/15 04:31:18;;;;;;;5.35;2.70;;;;;;;20.20;58.93;100340.81;5092463;28;20028;-58
2023/07/15 04:33:45;;;;;;;8.57;2.90;;;;;;;20.26;57.97;100341.47;5092444;28;20024;-56
2023/07/15 04:36:11;;;;;;;10.65;3.28;;;;;;;20.30;57.53;100346.69;5092641;28;20032;-59
2023/07/15 04:38:36;;;;;;;6.93;3.20;;;;;;;20.26;58.63;100356.69;5092620;28;20370;-58
2023/07/15 04:41:02;;;;;;;10.43;3.05;;;;;;;20.31;59.49;100360.09;5092580;28;20402;-57
2023/07/15 04:43:27;;;;;;;6.63;3.08;;;;;;;20.33;58.26;100357.31;5092576;28;20024;-59
2023/07/15 04:45:52;;;;;;;6.82;3.15;;;;;;;20.39;58.19;100365.16;5092409;28;20028;-58
2023/07/15 04:48:18;;;;;;;9.10;3.35;;;;;;;20.45;58.44;100365.78;5092631;28;20362;-58
2023/07/15 04:50:45;;;;;;;4.78;2.97;;;;;;;20.52;59.43;100366.50;5092672;28;20032;-59
2023/07/15 04:53:10;;;;;;;8.00;3.05;;;;;;;20.58;58.35;100368.06;5092465;28;20027;-57
2023/07/15 04:55:35;;;;;;;6.22;3.25;;;;;;;20.56;58.42;100354.69;5092370;28;20593;-58
2023/07/15 04:58:01;;;;;;;6.93;3.00;;;;;;;20.65;57.92;100365.09;5092524;28;20043;-58
2023/07/15 05:00:27;;;;;;;5.03;2.80;;;;;;;20.64;60.31;100366.03;5092578;28;20048;-58
2023/07/15 05:02:53;;;;;;;6.28;2.85;;;;;;;20.74;59.73;100363.84;5092493;28;20058;-57
2023/07/15 05:05:18;;;;;;;8.13;3.13;;;;;;;20.87;58.41;100362.44;5092310;28;20052;-58
2023/07/15 05:07:43;;;;;;;7.13;2.95;;;;;;;20.85;58.37;100361.59;5092295;28;20024;-59
2023/07/15 05:10:10;;;;;;;5.50;2.97;;;;;;;21.00;57.96;100354.75;5092249;28;20027;-58
2023/07/15 05:12:36;;;;;;;5.32;2.80;;;;;;;21.13;58.44;100360.50;5092540;28;20115;-57
2023/07/15 05:15:02;;;;;;;5.32;2.90;;;;;;;21.19;58.21;100347.69;5092391;28;20111;-58
2023/07/15 05:17:27;;;;;;;5.25;3.10;;;;;;;21.25;57.87;100352.81;5092512;28;20056;-58
2023/07/15 05:19:53;;;;;;;8.00;2.92;;;;;;;21.36;58.24;100362.28;5086821;28;20017;-58
2023/07/15 05:22:18;;;;;;;9.38;2.78;;;;;;;21.36;58.65;100364.97;5071644;28;20053;-58
2023/07/15 05:24:44;;;;;;;5.05;2.90;;;;;;;21.42;58.77;100365.59;5071659;28;20052;-58
2023/07/15 05:27:10;;;;;;;9.18;3.38;;;;;;;21.45;57.94;100362.75;5071996;28;20044;-58
2023/07/15 05:29:36;;;;;;;6.88;3.40;;;;;;;21.49;58.15;100352.75;5072238;28;20021;-59
2023/07/15 05:32:02;;;;;;;7.47;2.97;;;;;;;21.62;58.28;100353.97;5071944;28;20108;-58
2023/07/15 05:34:28;;;;;;;10.10;3.22;;;;;;;21.73;57.97;100354.41;5071955;28;20111;-58
2023/07/15 05:36:53;;;;;;;6.65;2.95;;;;;;;21.78;57.32;100364.97;5054126;28;20381;-58
2023/07/15 05:39:19;;;;;;;9.77;3.00;;;;;;;21.89;56.35;100364.50;5072069;28;20028;-58
2023/07/15 05:41:44;;;;;;;5.50;3.00;;;;;;;21.99;56.63;100358.66;5071883;28;20500;-58
2023/07/15 05:44:10;;;;;;;7.00;3.13;;;;;;;22.09;56.53;100369.88;5071585;28;20033;-57
2023/07/15 05:46:37;;;;;;;6.32;2.95;;;;;;;22.16;55.97;100362.44;5072052;28;20107;-59
2023/07/15 05:49:04;;;;;;;6.53;2.88;;;;;;;22.32;55.60;100363.50;5072090;28;20103;-58
2023/07/15 05:51:31;;;;;;;5.68;3.03;;;;;;;22.47;55.36;100364.59;5071706;28;20501;-58
2023/07/15 05:53:56;;;;;;;6.65;2.75;;;;;;;22.67;54.85;100363.69;5071677;28;20378;-57
2023/07/15 05:56:22;;;;;;;5.18;2.75;;;;;;;22.91;53.59;100372.44;5071846;28;20035;-58
2023/07/15 05:58:47;;;;;;;6.90;2.90;;;;;;;23.12;54.04;100384.00;5073136;28;20052;-57
2023/07/15 06:01:12;;;;;;;8.48;2.75;;;;;;;23.25;53.51;100377.06;5075214;28;20524;-57
2023/07/15 06:03:38;;;;;;;6.15;2.88;;;;;;;23.23;52.50;100366.38;5057249;28;20031;-59
2023/07/15 06:06:04;;;;;;;6.88;3.17;;;;;;;23.13;52.10;100373.19;5075378;28;20029;-58
2023/07/15 06:08:31;;;;;;;7.93;2.90;;;;;;;23.22;52.99;100371.84;5075539;28;20493;-57
2023/07/15 06:10:57;;;;;;;9.88;2.88;;;;;;;23.32;52.49;100369.56;5075285;28;20047;-58
2023/07/15 06:13:22;;;;;;;9.52;3.33;;;;;;;23.53;51.89;100367.63;5075124;28;20028;-58
2023/07/15 06:15:52;;;;;;;8.40;2.90;;;;;;;23.64;51.34;100385.03;5075133;28;20052;-57
2023/07/15 06:18:17;;;;;;;7.63;2.75;;;;;;;23.70;52.84;100373.94;5074993;28;20035;-58
2023/07/15 06:20:43;;;;;;;7.80;2.92;;;;;;;23.81;53.36;100372.50;5075308;28;20374;-57
2023/07/15 06:23:09;;;;;;;5.97;2.50;;;;;;;23.90;54.02;100382.84;5074677;28;20402;-58
2023/07/15 06:25:37;;;;;;;4.47;2.40;;;;;;;23.93;54.70;100380.84;5075103;28;20170;-57
2023/07/15 06:28:03;;;;;;;6.47;2.40;;;;;;;24.01;54.30;100380.44;5074881;28;20055;-58
2023/07/15 06:30:28;;;;;;;5.97;2.50;;;;;;;24.25;54.92;100386.38;5074815;28;20059;-57
2023/07/15 06:32:54;;;;;;;4.80;2.20;;;;;;;24.30;54.45;100376.19;5074564;28;20029;-59
2023/07/15 06:35:20;;;;;;;5.43;2.20;;;;;;;24.39;54.32;100369.47;5074740;28;20033;-58
2023/07/15 06:37:47;;;;;;;4.30;2.50;;;;;;;24.29;55.73;100379.00;5074606;28;20130;-58
2023/07/15 06:40:16;;;;;;;4.63;2.35;;;;;;;24.24;55.31;100380.13;5074545;28;20393;-57
2023/07/15 06:42:42;;;;;;;6.00;2.50;;;;;;;24.25;55.27;100378.28;5074564;28;20111;-58
2023/07/15 06:45:08;;;;;;;5.93;2.60;;;;;;;24.29;55.80;100387.97;5056405;28;20082;-57
2023/07/15 06:47:34;;;;;;;5.70;2.38;;;;;;;24.19;55.91;100392.09;5074408;28;20033;-58
2023/07/15 06:49:59;;;;;;;4.93;2.40;;;;;;;24.19;55.76;100381.28;5074659;28;20040;-58
2023/07/15 06:52:25;;;;;;;4.82;2.60;;;;;;;24.21;55.66;100385.66;5056788;28;20116;-57
2023/07/15 06:54:51;;;;;;;4.70;2.42;;;;;;;24.24;56.13;100373.84;5074395;28;20056;-58
2023/07/15 06:57:17;;;;;;;4.10;2.60;;;;;;;24.39;55.89;100367.63;5074261;28;20062;-57
2023/07/15 06:59:42;;;;;;;5.68;2.30;;;;;;;24.62;55.91;100360.97;5056408;28;20024;-58
2023/07/15 07:02:08;;;;;;;7.40;2.60;;;;;;;24.90;54.95;100376.53;5056133;28;20107;-58
2023/07/15 07:04:33;;;;;;;6.32;2.35;;;;;;;25.03;54.55;100376.69;5074243;28;20477;-57
2023/07/15 07:06:58;;;;;;;3.33;2.30;;;;;;;25.31;53.18;100384.16;5074168;28;20466;-59
2023/07/15 07:09:24;;;;;;;8.88;2.60;;;;;;;25.27;53.07;100377.19;5073360;28;20029;-58
2023/07/15 07:11:50;;;;;;;7.03;2.60;;;;;;;25.28;53.01;100372.63;5073472;28;20021;-59
2023/07/15 07:14:16;;;;;;;6.88;2.70;;;;;;;25.40;52.64;100380.03;5074161;28;20037;-57
2023/07/15 07:16:41;;;;;;;10.07;2.60;;;;;;;25.54;51.68;100371.09;5073863;28;20031;-57
2023/07/15 07:19:07;;;;;;;4.80;2.50;;;;;;;25.75;51.36;100380.66;5055858;28;20035;-58
2023/07/15 07:21:32;;;;;;;6.13;2.50;;;;;;;25.73;50.68;100378.03;5073367;28;20036;-56
2023/07/15 07:23:57;;;;;;;5.53;2.30;;;;;;;25.78;50.69;100383.22;5073790;28;20114;-57
2023/07/15 07:26:23;;;;;;;9.77;2.63;;;;;;;25.75;50.70;100390.63;5073645;28;20032;-57
2023/07/15 07:28:49;;;;;;;5.95;2.30;;;;;;;25.64;50.72;100397.53;5073769;28;20031;-58
2023/07/15 07:31:16;;;;;;;4.32;2.30;;;;;;;25.43;50.88;100391.53;5073546;28;20033;-58
2023/07/15 07:33:42;;;;;;;5.65;2.50;;;;;;;25.21;51.60;100397.31;5073385;28;20032;-57
2023/07/15 07:36:07;;;;;;;5.22;2.60;;;;;;;25.13;52.12;100401.41;5073235;28;20036;-57
2023/07/15 07:38:33;;;;;;;7.20;2.53;;;;;;;24.96;52.71;100405.03;5073463;28;20484;-58
2023/07/15 07:41:09;;;;;;;11.20;3.00;;;;;;;25.00;52.87;100409.31;5073162;28;20031;-56
2023/07/15 07:43:36;;;;;;;4.65;3.00;;;;;;;25.02;52.42;100401.13;5073191;28;20393;-58
2023/07/15 07:46:04;;;;;;;5.72;2.60;;;;;;;25.37;53.17;100391.91;5073407;28;20070;-57
2023/07/15 07:48:29;;;;;;;6.47;2.60;;;;;;;25.57;52.18;100393.44;5073353;28;20039;-58
2023/07/15 07:50:56;;;;;;;7.22;2.72;;;;;;;26.01;52.37;100392.66;5073202;28;20099;-57
2023/07/15 07:53:22;;;;;;;3.72;2.42;;;;;;;26.40;50.33;100389.31;5073013;28;20478;-57
2023/07/15 07:55:47;;;;;;;4.70;2.60;;;;;;;26.53;51.05;100394.03;5055406;28;20416;-57
2023/07/15 07:58:13;;;;;;;9.18;2.50;;;;;;;26.54;50.22;100398.47;5072770;28;20029;-58
2023/07/15 08:00:38;;;;;;;5.95;2.45;;;;;;;26.54;51.52;100396.63;5072943;28;20024;-58
2023/07/15 08:03:03;;;;;;;4.30;2.20;;;;;;;26.58;51.25;100390.03;5054708;28;20111;-58
2023/07/15 08:05:29;;;;;;;4.15;2.40;;;;;;;26.62;51.12;100360.91;5089881;28;20029;-58
2023/07/15 08:07:54;;;;;;;4.70;2.20;;;;;;;26.72;51.89;100378.31;5093041;28;20115;-57
2023/07/15 08:10:20;;;;;;;4.25;2.20;;;;;;;26.64;51.61;100396.94;5092723;28;20036;-57
2023/07/15 08:12:45;;;;;;;5.78;2.30;;;;;;;26.46;52.23;100401.66;5093176;28;20032;-58
2023/07/15 08:15:11;;;;;;;6.10;2.20;;;;;;;26.47;51.92;100408.84;5093128;28;20031;-57
2023/07/15 08:17:36;;;;;;;6.55;2.40;;;;;;;26.39;53.16;100400.28;5092881;28;20035;-58
2023/07/15 08:20:03;;;;;;;6.68;2.65;;;;;;;26.40;53.02;100393.88;5092859;28;20040;-57
2023/07/15 08:22:28;;;;;;;5.25;2.10;;;;;;;26.55;53.70;100392.06;5092514;28;20052;-57
2023/07/15 08:24:54;;;;;;;4.18;2.00;;;;;;;26.57;53.75;100396.44;5092563;28;20447;-58
2023/07/15 08:27:19;;;;;;;4.93;2.20;;;;;;;26.54;53.15;100410.16;5092831;28;20131;-57
2023/07/15 08:29:45;;;;;;;5.97;2.08;;;;;;;26.72;53.23;100408.13;5092866;28;20509;-58
2023/07/15 08:32:10;;;;;;;3.28;2.10;;;;;;;27.10;52.63;100396.69;5092519;28;20032;-57
2023/07/15 08:34:37;;;;;;;7.90;2.50;;;;;;;27.08;50.93;100409.47;5074844;28;20493;-59
2023/07/15 08:37:02;;;;;;;5.13;2.03;;;;;;;26.70;52.21;100410.09;5092917;28;20032;-58
2023/07/15 08:39:28;;;;;;;7.13;2.10;;;;;;;26.55;52.99;100411.94;5092637;28;20476;-59
2023/07/15 08:41:53;;;;;;;5.97;2.33;;;;;;;26.38;51.87;100420.19;5092517;28;20062;-59
2023/07/15 08:44:19;;;;;;;5.80;2.50;;;;;;;26.26;51.65;100419.13;5092521;28;20024;-57
2023/07/15 08:46:45;;;;;;;6.93;2.40;;;;;;;26.26;52.18;100426.38;5092369;28;20064;-58
2023/07/15 08:49:11;;;;;;;5.15;2.55;;;;;;;26.30;52.73;100434.22;5092443;28;20501;-58
2023/07/15 08:51:37;;;;;;;8.75;2.60;;;;;;;26.11;52.79;100437.16;5092201;28;20062;-57
2023/07/15 08:54:05;;;;;;;4.72;2.50;;;;;;;26.02;53.66;100443.13;5092653;28;20073;-58
2023/07/15 08:56:34;;;;;;;5.43;2.50;;;;;;;25.93;53.82;100443.69;5092284;28;20028;-57
2023/07/15 08:58:59;;;;;;;33.50;2.90;;;;;;;25.68;53.32;100442.38;5092498;28;20047;-58
2023/07/15 09:01:25;;;;;;;8.77;2.72;;;;;;;25.36;54.51;100449.66;5092375;28;20032;-57
2023/07/15 09:03:50;;;;;;;7.85;2.70;;;;;;;25.32;53.84;100461.63;5092004;28;20032;-57
2023/07/15 09:06:16;;;;;;;10.43;2.50;;;;;;;25.25;54.69;100470.16;5092244;28;20032;-57
2023/07/15 09:08:44;;;;;;;5.65;2.70;;;;;;;25.13;54.26;100464.47;5092355;28;20085;-58
2023/07/15 09:11:11;;;;;;;6.75;2.70;;;;;;;24.98;54.21;100463.47;5092066;28;20099;-58
2023/07/15 09:13:37;;;;;;;6.03;2.65;;;;;;;24.98;52.79;100474.28;5092093;28;20028;-57
2023/07/15 09:16:03;;;;;;;4.70;2.60;;;;;;;24.71;53.74;100473.06;5092148;28;20101;-57
2023/07/15 09:18:29;;;;;;;9.30;2.60;;;;;;;24.64;53.68;100458.16;5092067;28;20020;-57
2023/07/15 09:21:10;;;;;;;6.20;2.55;;;;;;;24.56;54.12;100463.09;5092365;28;20028;-58
2023/07/15 09:23:41;;;;;;;11.02;2.70;;;;;;;24.53;54.50;100463.25;5091748;28;20044;-58
2023/07/15 09:26:07;;;;;;;6.20;2.65;;;;;;;24.64;54.97;100460.88;5091769;28;20494;-58
2023/07/15 09:28:33;;;;;;;8.60;2.60;;;;;;;24.71;54.68;100455.06;5092186;28;20403;-58
2023/07/15 09:31:00;;;;;;;7.95;2.70;;;;;;;24.87;54.89;100451.50;5092144;28;20103;-58
2023/07/15 09:33:38;;;;;;;4.20;2.40;;;;;;;24.94;54.91;100455.63;5092835;28;20023;-59
2023/07/15 09:36:04;;;;;;;9.15;2.75;;;;;;;24.97;54.38;100456.31;5096100;28;20032;-58
2023/07/15 09:38:34;;;;;;;13.13;2.80;;;;;;;25.11;54.23;100452.00;5095190;28;20050;-58
2023/07/15 09:41:01;;;;;;;7.88;2.60;;;;;;;25.08;53.22;100461.16;5093917;28;20035;-58
2023/07/15 09:43:47;;;;;;;6.72;2.78;;;;;;;25.25;53.60;100475.56;5095166;28;20222;-57
2023/07/15 09:46:15;;;;;;;6.03;2.50;;;;;;;25.05;53.14;100463.13;5095597;28;20024;-59
2023/07/15 09:48:43;;;;;;;6.28;2.72;;;;;;;25.04;53.71;100481.16;5095807;28;20041;-59
2023/07/15 09:51:16;;;;;;;8.32;2.50;;;;;;;25.16;53.36;100483.25;5077341;28;20028;-57
2023/07/15 09:53:47;;;;;;;5.55;2.30;;;;;;;25.18;53.75;100484.03;5096041;28;20063;-59
2023/07/15 09:56:14;;;;;;;13.30;3.92;;;;;;;25.17;54.54;100497.63;5095500;28;20051;-58
2023/07/15 09:58:45;;;;;;;6.38;2.45;;;;;;;25.12;53.94;100500.59;5095778;28;20024;-58
2023/07/15 10:01:22;;;;;;;6.55;2.50;;;;;;;25.04;54.44;100493.81;5095538;28;20456;-58
2023/07/15 10:04:10;;;;;;;9.63;2.70;;;;;;;24.79;55.68;100522.16;5095305;28;20039;-58
2023/07/15 10:06:36;;;;;;;7.45;2.78;;;;;;;24.54;56.09;100502.81;5095645;28;20054;-57
2023/07/15 10:09:02;;;;;;;5.10;2.40;;;;;;;24.40;57.08;100506.25;5095636;28;20024;-58
2023/07/15 10:11:29;;;;;;;6.75;2.60;;;;;;;24.38;58.19;100494.66;5095091;28;20395;-58
2023/07/15 10:13:55;;;;;;;7.68;2.50;;;;;;;24.14;59.87;100504.84;5095458;28;20051;-58
2023/07/15 10:16:20;;;;;;;4.50;2.70;;;;;;;23.94;61.69;100498.66;5095193;28;20473;-58
2023/07/15 10:18:46;;;;;;;6.10;2.50;;;;;;;23.68;63.16;100504.44;5095117;28;20032;-58
2023/07/15 10:21:14;;;;;;;6.45;2.47;;;;;;;23.56;64.29;100480.75;5095390;28;20103;-59
2023/07/15 10:23:40;;;;;;;4.95;2.63;;;;;;;23.49;65.64;100455.91;5094950;28;20044;-58
2023/07/15 10:26:08;;;;;;;6.95;2.60;;;;;;;23.54;64.45;100463.75;5095004;28;20039;-58
2023/07/15 10:28:41;;;;;;;4.20;2.47;;;;;;;23.38;64.75;100463.63;5095002;28;20028;-57
2023/07/15 10:31:15;;;;;;;5.82;2.67;;;;;;;23.31;64.71;100465.75;5094931;28;20032;-60
2023/07/15 10:33:57;;;;;;;5.72;2.80;;;;;;;23.27;66.21;100463.28;5094672;28;20024;-58
2023/07/15 10:36:38;;;;;;;5.18;2.50;;;;;;;23.20;67.22;100476.16;5094803;28;20481;-59
2023/07/15 10:39:09;;;;;;;7.25;2.78;;;;;;;23.28;69.00;100473.13;5094763;28;20447;-58
2023/07/15 10:41:49;;;;;;;14.38;2.85;;;;;;;23.28;69.73;100470.41;5094766;28;20049;-59
2023/07/15 10:44:25;;;;;;;4.82;3.03;;;;;;;23.41;67.24;100463.47;5094780;28;20024;-58
2023/07/15 10:47:00;;;;;;;5.25;2.83;;;;;;;23.51;68.77;100472.91;5094774;28;20020;-58
2023/07/15 10:49:26;;;;;;;5.05;2.60;;;;;;;23.52;66.85;100474.63;5094327;28;20020;-58
2023/07/15 10:51:54;;;;;;;5.25;2.55;;;;;;;23.47;66.74;100472.16;5081570;28;20098;-59
2023/07/15 10:54:27;;;;;;;5.20;2.85;;;;;;;23.51;65.81;100481.00;5056769;28;20025;-58
2023/07/15 10:56:53;;;;;;;5.20;2.78;;;;;;;23.46;66.83;100472.22;5074203;28;20037;-57
2023/07/15 10:59:21;;;;;;;5.93;2.83;;;;;;;23.47;66.90;100477.56;5074211;28;20035;-58
2023/07/15 11:01:46;;;;;;;7.70;2.83;;;;;;;23.50;66.84;100490.00;5074197;28;20025;-58
2023/07/15 11:04:13;;;;;;;5.63;2.72;;;;;;;23.48;67.21;100491.91;5073922;28;20029;-57
2023/07/15 11:06:38;;;;;;;9.63;2.80;;;;;;;23.51;66.67;100491.78;5074093;28;20492;-58
2023/07/15 11:09:13;;;;;;;7.93;2.97;;;;;;;23.55;66.69;100479.00;5074431;28;20029;-60
2023/07/15 11:11:39;;;;;;;7.35;2.70;;;;;;;23.56;64.99;100478.06;5074050;28;20326;-60
2023/07/15 11:14:04;;;;;;;6.68;2.50;;;;;;;23.66;65.67;100484.78;5074066;28;20126;-58
2023/07/15 11:16:29;;;;;;;5.38;2.70;;;;;;;23.73;64.67;100483.53;5073923;28;20025;-58
2023/07/15 11:18:55;;;;;;;6.13;2.58;;;;;;;23.78;64.74;100473.38;5073905;28;20559;-59
2023/07/15 11:21:20;;;;;;;4.30;2.67;;;;;;;23.89;63.56;100475.53;5073996;28;20052;-57
2023/07/15 11:23:45;;;;;;;7.18;2.50;;;;;;;24.02;62.68;100476.66;5073474;28;20632;-58